Fort Benton (79S)
Fort Benton, MT
Field Elevation: 2868
Lat: 47°50.71N  Long: 110°38.19W
CTAF/Unicom Freq: 122.8000
   
     For Weather-by-Phone, call 406-622-5976
Weather Advisories
2018-12-18   20:56 Z
Altimeter 29.58" Hg
Wind 350° @ 22 KT
Gusts 26 KT
Visibility --
Temperature 13° C (55° F)
Dewpoint -3° C (27° F)
Relative Humidity 33%
Density Altitude --
Condensation Altitude 10,600 feet
Wind and Runways
Indicated Runway = 32
Headwind = 19 kt
Crosswind = 11 kt
History
 
 
 
More Info
NOAA Forecast
 
 
About Us
Belfort Instrument
 
 
FAA Disclaimer: The data displayed is for advisory purposes only and is not to be used for flight planning or operations. For official data, please call 406-622-5976 to hear the current automated AWOS voice message.
  METAR 79S 182056Z AUTO 35022G26KT 13/M03 A2958